Time;durP1;ratioP1;P1;durP2;ratioP2;P2;SDS_P1;SDS_P2;PMS_P1;PMS_P2;Temp;Humidity;BMP_temperature;BMP_pressure;BME280_temperature;BME280_humidity;BME280_pressure;Samples;Min_cycle;Max_cycle;Signal;HPM_P1;HPM_P2
2021/12/20 00:03:00;;;;;;;9.77;6.77;;;7.50;94.90;;;;;;20835406;28;20613;-70
2021/12/20 00:13:03;;;;;;;10.70;6.63;;;7.40;95.00;;;;;;20834870;28;20321;-69
2021/12/20 00:23:04;;;;;;;9.20;5.87;;;7.40;95.30;;;;;;20833824;28;20232;-69
2021/12/20 00:33:06;;;;;;;11.60;6.80;;;7.40;95.30;;;;;;20833066;28;20692;-69
2021/12/20 00:43:08;;;;;;;10.77;7.03;;;7.50;95.10;;;;;;20832757;28;20205;-69
2021/12/20 00:53:12;;;;;;;13.07;8.07;;;7.40;95.00;;;;;;20831547;28;20231;-66
2021/12/20 01:03:15;;;;;;;11.80;7.23;;;7.30;95.70;;;;;;20830707;28;20222;-69
2021/12/20 01:13:21;;;;;;;15.40;9.70;;;7.20;95.50;;;;;;20830813;28;20295;-69
2021/12/20 01:23:24;;;;;;;13.03;7.63;;;7.10;95.60;;;;;;20830242;28;20212;-69
2021/12/20 01:33:26;;;;;;;13.60;8.47;;;6.90;95.60;;;;;;20830100;28;20255;-69
2021/12/20 01:43:28;;;;;;;13.83;8.33;;;6.80;95.80;;;;;;20830856;28;20208;-69
2021/12/20 01:53:29;;;;;;;12.93;8.23;;;6.80;96.00;;;;;;20829415;28;20751;-69
2021/12/20 02:03:33;;;;;;;14.70;8.70;;;6.70;95.90;;;;;;20828789;28;20605;-69
2021/12/20 02:13:37;;;;;;;14.30;8.27;;;6.60;96.20;;;;;;20828354;28;20272;-69
2021/12/20 02:23:38;;;;;;;14.27;8.77;;;6.50;96.00;;;;;;20842060;28;20216;-69
2021/12/20 02:44:11;;;;;;;15.03;8.07;;;6.50;96.30;;;;;;20841425;28;20256;-69
2021/12/20 02:54:13;;;;;;;14.87;8.60;;;6.50;96.50;;;;;;20841413;28;20286;-69
2021/12/20 03:04:16;;;;;;;15.90;7.67;;;6.40;96.10;;;;;;20840132;28;20209;-69
2021/12/20 03:14:23;;;;;;;15.27;7.97;;;6.50;96.30;;;;;;20839030;28;20232;-69
2021/12/20 03:24:26;;;;;;;10.93;7.17;;;6.50;96.30;;;;;;20839010;28;20213;-69
2021/12/20 03:34:27;;;;;;;13.93;7.23;;;6.50;96.00;;;;;;20837441;28;20644;-69
2021/12/20 03:44:32;;;;;;;11.93;6.80;;;6.50;96.00;;;;;;20836889;28;20201;-69
2021/12/20 03:54:35;;;;;;;15.57;6.63;;;6.50;96.20;;;;;;20836245;28;20294;-69
2021/12/20 04:04:37;;;;;;;9.47;6.13;;;6.60;96.10;;;;;;20835269;28;20209;-68
2021/12/20 04:14:38;;;;;;;12.07;5.77;;;6.50;96.00;;;;;;20834267;28;20238;-68
2021/12/20 04:24:40;;;;;;;9.97;6.20;;;6.60;96.30;;;;;;20833951;28;20607;-69
2021/12/20 04:34:42;;;;;;;9.73;6.40;;;6.70;96.20;;;;;;20832822;28;20236;-68
2021/12/20 04:44:44;;;;;;;12.50;6.20;;;6.50;95.90;;;;;;20830330;28;20210;-69
2021/12/20 04:54:46;;;;;;;13.27;5.63;;;6.60;96.10;;;;;;20831975;28;20325;-69
2021/12/20 05:04:47;;;;;;;11.10;6.23;;;6.60;96.10;;;;;;20830962;28;20214;-69
2021/12/20 05:14:49;;;;;;;14.00;5.80;;;6.60;96.10;;;;;;20830047;28;20249;-68
2021/12/20 05:24:51;;;;;;;13.17;6.77;;;6.50;96.40;;;;;;20830317;28;20219;-68
2021/12/20 05:34:52;;;;;;;13.13;5.83;;;6.50;96.20;;;;;;20829657;28;20303;-69
2021/12/20 05:44:55;;;;;;;13.53;6.17;;;6.40;95.90;;;;;;20828911;28;20722;-68
2021/12/20 05:54:57;;;;;;;9.17;4.80;;;6.30;95.90;;;;;;20838500;28;20237;-68
2021/12/20 06:04:58;;;;;;;11.77;5.97;;;6.30;96.20;;;;;;20842958;28;20212;-67
2021/12/20 06:15:00;;;;;;;10.07;6.13;;;6.20;95.80;;;;;;20843100;28;20245;-70
2021/12/20 06:25:03;;;;;;;11.87;6.33;;;6.00;96.10;;;;;;20842766;28;20208;-68
2021/12/20 06:35:05;;;;;;;16.97;8.20;;;5.90;96.40;;;;;;20841592;28;20293;-67
2021/12/20 06:45:09;;;;;;;18.13;5.80;;;5.70;96.20;;;;;;20841045;28;20266;-67
2021/12/20 06:55:10;;;;;;;12.30;6.50;;;5.60;96.20;;;;;;20840373;28;20247;-67
2021/12/20 07:05:12;;;;;;;16.27;5.73;;;5.40;95.70;;;;;;20838135;28;20205;-67
2021/12/20 07:15:15;;;;;;;13.50;7.47;;;5.20;95.50;;;;;;20836438;28;20460;-67
2021/12/20 07:25:18;;;;;;;11.80;6.03;;;5.30;95.90;;;;;;20837802;28;20204;-66
2021/12/20 07:35:21;;;;;;;20.40;7.37;;;5.00;95.70;;;;;;20836208;28;20228;-68
2021/12/20 07:45:23;;;;;;;11.37;7.20;;;4.80;95.50;;;;;;20835475;28;20267;-68
2021/12/20 07:55:25;;;;;;;15.57;7.00;;;4.60;95.50;;;;;;20834974;28;20232;-69
2021/12/20 08:05:28;;;;;;;21.97;8.10;;;4.60;95.80;;;;;;20834020;28;20213;-68
2021/12/20 08:15:30;;;;;;;13.33;6.50;;;4.50;95.90;;;;;;20832310;28;20244;-68
2021/12/20 08:25:31;;;;;;;23.63;6.27;;;4.70;95.80;;;;;;20832851;28;20218;-68
2021/12/20 08:35:33;;;;;;;23.97;10.30;;;4.70;95.80;;;;;;20831901;28;20290;-68
2021/12/20 08:45:36;;;;;;;10.30;5.83;;;4.80;95.80;;;;;;20830814;28;20208;-68
2021/12/20 08:55:39;;;;;;;24.67;7.47;;;5.10;95.80;;;;;;20831302;28;20237;-68
2021/12/20 09:05:41;;;;;;;16.33;7.13;;;5.10;96.10;;;;;;20830173;28;20212;-66
2021/12/20 09:15:43;;;;;;;12.13;5.90;;;5.50;95.70;;;;;;20829293;28;20596;-69
2021/12/20 09:25:46;;;;;;;11.97;5.83;;;5.70;95.70;;;;;;20828989;28;20228;-69
2021/12/20 09:35:50;;;;;;;11.40;7.03;;;5.80;96.00;;;;;;20828505;28;20287;-69
2021/12/20 09:45:52;;;;;;;17.43;6.37;;;6.00;95.90;;;;;;20827816;28;20234;-69
2021/12/20 09:55:54;;;;;;;15.77;5.73;;;6.00;95.70;;;;;;20827922;28;20295;-69
2021/12/20 10:05:59;;;;;;;25.27;5.37;;;6.10;95.70;;;;;;20827632;28;20243;-68
2021/12/20 10:16:06;;;;;;;16.83;5.20;;;6.20;95.30;;;;;;20827530;28;20299;-69
2021/12/20 10:26:14;;;;;;;14.90;6.93;;;6.30;95.10;;;;;;20826543;28;20214;-68
2021/12/20 10:36:16;;;;;;;12.97;4.20;;;6.40;94.70;;;;;;20828597;28;20228;-69
2021/12/20 10:46:23;;;;;;;11.13;4.00;;;6.60;94.80;;;;;;20841247;28;20207;-68
2021/12/20 10:56:27;;;;;;;13.10;5.80;;;6.80;94.10;;;;;;20840118;28;20311;-69
2021/12/20 11:06:43;;;;;;;8.77;2.27;;;7.00;93.40;;;;;;20838720;28;20259;-69
2021/12/20 11:16:51;;;;;;;6.23;2.30;;;7.10;92.10;;;;;;20838161;28;20299;-69
2021/12/20 11:26:53;;;;;;;8.60;2.40;;;7.20;91.00;;;;;;20838758;28;20206;-69
2021/12/20 11:36:57;;;;;;;8.57;2.40;;;7.40;90.30;;;;;;20837128;28;20235;-69
2021/12/20 11:47:37;;;;;;;7.93;1.83;;;7.60;88.70;;;;;;20836272;28;20207;-69
2021/12/20 11:57:41;;;;;;;8.83;2.23;;;7.80;86.60;;;;;;20785458;28;20238;-69
2021/12/20 12:07:44;;;;;;;14.87;2.60;;;7.90;85.00;;;;;;20835089;28;20631;-68
2021/12/20 12:17:59;;;;;;;26.90;9.07;;;8.10;83.50;;;;;;20832852;28;20246;-68
2021/12/20 12:28:00;;;;;;;10.13;3.90;;;8.30;82.40;;;;;;20832367;28;20219;-68
2021/12/20 12:38:14;;;;;;;5.70;2.17;;;8.40;81.00;;;;;;20832320;28;20239;-68
2021/12/20 12:48:36;;;;;;;6.73;1.70;;;8.50;80.20;;;;;;20831754;28;20203;-68
2021/12/20 12:58:38;;;;;;;6.47;3.07;;;8.40;76.40;;;;;;20828753;28;20292;-67
2021/12/20 13:08:51;;;;;;;8.67;3.80;;;8.20;72.00;;;;;;20830436;28;20201;-69
2021/12/20 13:18:58;;;;;;;9.90;2.03;;;8.20;72.60;;;;;;20829202;28;20308;-68
2021/12/20 13:29:03;;;;;;;3.77;1.70;;;8.20;71.30;;;;;;20825626;28;20208;-69
2021/12/20 13:39:08;;;;;;;5.10;1.60;;;8.20;69.70;;;;;;20828615;28;20240;-69
2021/12/20 13:49:25;;;;;;;5.57;1.80;;;8.00;68.00;;;;;;20829902;28;20652;-69
2021/12/20 13:59:38;;;;;;;6.57;1.93;;;8.00;67.30;;;;;;20827551;28;20823;-69
2021/12/20 14:10:18;;;;;;;14.13;3.80;;;8.00;66.60;;;;;;20828381;28;20726;-68
2021/12/20 14:20:44;;;;;;;5.13;2.10;;;7.80;66.70;;;;;;20842588;28;20244;-68
2021/12/20 14:30:49;;;;;;;11.83;3.03;;;7.10;66.70;;;;;;20835523;28;20213;-69
2021/12/20 14:40:51;;;;;;;16.50;7.63;;;6.80;68.10;;;;;;20841544;28;20241;-68
2021/12/20 14:50:55;;;;;;;13.13;4.32;;;6.70;68.90;;;;;;20835776;28;20467;-67
2021/12/20 15:00:57;;;;;;;17.43;5.20;;;7.10;70.80;;;;;;20839808;28;20232;-67
2021/12/20 15:10:59;;;;;;;8.33;3.50;;;6.20;70.60;;;;;;20838851;28;20324;-67
2021/12/20 15:21:01;;;;;;;12.67;3.60;;;6.10;71.00;;;;;;20837885;28;20704;-70
2021/12/20 15:31:02;;;;;;;10.47;4.30;;;5.90;72.10;;;;;;20836224;28;20209;-67
2021/12/20 15:41:04;;;;;;;16.50;4.00;;;5.70;72.90;;;;;;20836546;28;20294;-66
2021/12/20 15:51:06;;;;;;;21.30;6.20;;;5.40;73.70;;;;;;20835858;28;20545;-67
2021/12/20 16:01:09;;;;;;;12.70;4.27;;;5.20;74.80;;;;;;20835155;28;20232;-70
2021/12/20 16:11:11;;;;;;;18.70;6.63;;;5.10;76.10;;;;;;20834596;28;20569;-71
2021/12/20 16:21:13;;;;;;;19.97;7.83;;;5.00;75.80;;;;;;20831871;28;20598;-69
2021/12/20 16:31:14;;;;;;;14.50;6.50;;;4.80;76.60;;;;;;20832846;28;20212;-66
2021/12/20 16:41:16;;;;;;;16.47;6.50;;;4.40;77.60;;;;;;20831456;28;20290;-66
2021/12/20 16:51:18;;;;;;;17.33;7.17;;;4.40;78.70;;;;;;20849435;28;20312;-66
2021/12/20 17:01:42;;;;;;;21.10;9.63;;;4.20;78.60;;;;;;20913486;28;20231;-66
2021/12/20 17:11:43;;;;;;;19.47;9.40;;;4.20;79.50;;;;;;20912763;28;20231;-65
2021/12/20 17:21:45;;;;;;;21.80;9.87;;;4.00;79.50;;;;;;20854429;28;20622;-64
2021/12/20 17:31:49;;;;;;;20.27;8.07;;;3.80;80.90;;;;;;20829370;28;20212;-70
2021/12/20 17:47:31;;;;;;;19.87;9.77;;;3.60;81.90;;;;;;21065739;27;20562;-72
2021/12/20 17:57:34;;;;;;;20.00;7.77;;;3.50;82.40;;;;;;21066396;28;20270;-72
2021/12/20 18:07:36;;;;;;;15.67;5.60;;;3.40;83.00;;;;;;21066985;28;20222;-70
2021/12/20 18:17:37;;;;;;;22.60;7.80;;;3.40;83.90;;;;;;21065700;28;20202;-69
2021/12/20 18:27:39;;;;;;;16.50;9.13;;;3.50;84.20;;;;;;21064867;28;20289;-67
2021/12/20 18:37:42;;;;;;;18.97;9.53;;;3.30;83.80;;;;;;21064217;28;20234;-68
2021/12/20 18:47:44;;;;;;;28.93;9.50;;;3.30;84.30;;;;;;21063395;28;20207;-69
2021/12/20 18:57:46;;;;;;;29.03;15.93;;;3.20;84.10;;;;;;21012940;28;20213;-69
2021/12/20 19:07:48;;;;;;;20.77;10.17;;;3.20;84.80;;;;;;21004948;28;20666;-70
2021/12/20 19:17:49;;;;;;;19.53;9.57;;;3.00;84.70;;;;;;21003314;28;20729;-69
2021/12/20 19:27:51;;;;;;;20.93;10.30;;;2.80;84.80;;;;;;21003567;28;20242;-68
2021/12/20 19:37:53;;;;;;;17.77;9.80;;;2.80;85.50;;;;;;20907045;28;20242;-69
2021/12/20 19:47:54;;;;;;;20.30;10.97;;;2.70;86.10;;;;;;20918718;28;20292;-68
2021/12/20 19:57:56;;;;;;;19.53;10.03;;;2.60;86.70;;;;;;20916679;28;20208;-68
2021/12/20 20:07:58;;;;;;;18.27;9.87;;;2.50;86.70;;;;;;20914363;28;20211;-69
2021/12/20 20:18:01;;;;;;;24.83;11.47;;;2.50;86.10;;;;;;20911037;28;20203;-69
2021/12/20 20:28:03;;;;;;;23.07;12.50;;;2.50;86.60;;;;;;20904211;28;20214;-71
2021/12/20 20:38:05;;;;;;;28.97;13.53;;;2.50;87.20;;;;;;20948570;28;20618;-67
2021/12/20 20:48:07;;;;;;;21.17;11.33;;;2.30;87.30;;;;;;20994834;28;20218;-69
2021/12/20 20:58:10;;;;;;;24.70;12.03;;;2.10;87.80;;;;;;20994946;28;20265;-69
2021/12/20 21:08:12;;;;;;;24.67;15.70;;;2.10;88.30;;;;;;20888575;28;20513;-70
2021/12/20 21:18:14;;;;;;;27.50;13.80;;;2.70;88.10;;;;;;20911489;28;20234;-72
2021/12/20 21:28:16;;;;;;;25.07;13.27;;;2.30;88.10;;;;;;20835462;28;20208;-70
2021/12/20 21:38:17;;;;;;;25.47;12.33;;;2.10;87.30;;;;;;20828741;28;20604;-71
2021/12/20 21:48:19;;;;;;;33.30;13.53;;;2.00;87.60;;;;;;20839400;28;20214;-72
2021/12/20 21:58:21;;;;;;;24.33;12.73;;;2.10;87.80;;;;;;20991967;28;20233;-72
2021/12/20 22:08:23;;;;;;;22.80;12.30;;;1.90;86.90;;;;;;20994533;28;20221;-72
2021/12/20 22:18:25;;;;;;;22.57;12.23;;;1.90;87.80;;;;;;20993642;28;20801;-71
2021/12/20 22:28:27;;;;;;;24.27;11.53;;;1.70;87.20;;;;;;20999631;28;20220;-72
2021/12/20 22:38:29;;;;;;;21.90;11.20;;;1.80;88.10;;;;;;21008446;28;20237;-72
2021/12/20 22:48:31;;;;;;;21.70;10.67;;;1.60;87.80;;;;;;21007766;28;20229;-72
2021/12/20 22:58:32;;;;;;;23.53;10.20;;;1.50;87.40;;;;;;21006946;28;20635;-72
2021/12/20 23:08:35;;;;;;;27.17;10.93;;;1.50;88.00;;;;;;21006604;28;20208;-71
2021/12/20 23:18:37;;;;;;;22.73;10.13;;;1.50;88.10;;;;;;20928153;28;20299;-72
2021/12/20 23:28:39;;;;;;;25.53;10.37;;;1.40;88.10;;;;;;20836669;28;20289;-72
2021/12/20 23:38:44;;;;;;;18.40;9.67;;;1.40;88.70;;;;;;20838892;28;20237;-72
2021/12/20 23:48:46;;;;;;;21.27;9.93;;;1.30;88.70;;;;;;20838036;28;20214;-72
2021/12/20 23:58:48;;;;;;;20.93;10.60;;;1.20;88.80;;;;;;20837108;28;20283;-72
